Address 0x44f8004e4ce6c3087ce8e879ff290093d5593c75 2

 
 
Txn Hash Method
Block
From
To
Value [Txn Fee]
0x5edbdb012abe296225643b76003fa83ba1023f0a8f11f44a49d86cde0e66bec4Transfer236300262022-01-12 10:55:3911 days 9 hrs ago0x44f8004e4ce6c3087ce8e879ff290093d5593c75OUT0x702919185c792f15c5623f9bd1a2d2778b0db8321,400 MATIC0.000632130.1
0x6ff9351c5d44679228299d196cc15474609beee39e3e320ffbef0f5993833e48Swap Exact Token...236299942022-01-12 10:54:3111 days 9 hrs ago0x44f8004e4ce6c3087ce8e879ff290093d5593c75OUT 0xfe0e493564db7ae23a7b6ea07f2c633ee8f25f220 MATIC0.003923173830.1
0x206d0988f8af1bd269334d9edc2edfa54b7968f0009e5036d188baf1d35770c3Approve236299632022-01-12 10:53:2911 days 9 hrs ago0x44f8004e4ce6c3087ce8e879ff290093d5593c75OUT 0x430ef9263e76dae63c84292c3409d61c598e96820 MATIC0.001402930930.1
0xc2c6161f699a018806a47645aa31103132ae98cf4b46897ad813782e82350a4dTransfer234129832022-01-06 19:11:3517 days 1 hr ago0x44f8004e4ce6c3087ce8e879ff290093d5593c75OUT0x702919185c792f15c5623f9bd1a2d2778b0db832600 MATIC0.0105500
0x386bc40fdc6848b67b2b2720bfde7f3744c83fa7851497021afd539d3d72d572Swap Exact Token...234128122022-01-06 19:05:4517 days 1 hr ago0x44f8004e4ce6c3087ce8e879ff290093d5593c75OUT QuickSwap: Router0 MATIC0.058991500
0xbeb71b2c5521ce5408116996b76a3bd78c997fe6129d1046c9def7d5c8e25c83Swap Exact Token...234125182022-01-06 18:55:3717 days 1 hr ago0x44f8004e4ce6c3087ce8e879ff290093d5593c75OUT QuickSwap: Router0 MATIC0.015842500
0x165ab3c7b849f8a569dbfe67d32da37972c2638094257541077605fcd57deae7Swap Exact Token...234124072022-01-06 18:51:4717 days 1 hr ago0x44f8004e4ce6c3087ce8e879ff290093d5593c75OUT QuickSwap: Router0 MATIC0.0516275500
0x5bc9704ab9d76b71b4eb235532320973db0b9dba135454ed404389b7df1b5895Approve234116282022-01-06 18:22:4717 days 2 hrs ago0x44f8004e4ce6c3087ce8e879ff290093d5593c75OUT 0x348e62131fce2f4e0d5ead3fe1719bc039b380a90 MATIC0.0233045500
0x1069cfde1ed3200fbcde64e520b2a0fbc98108e582b62717741b342e12a7395dSwap Exact Token...234108792022-01-06 17:53:3017 days 2 hrs ago0x44f8004e4ce6c3087ce8e879ff290093d5593c75OUT QuickSwap: Router0 MATIC0.015842500
0xebd7bb33c9e8f4d2d6ca4b06eb845780c9402211dc64706bb4aac247a6e1eb68Approve234101902022-01-06 17:25:0317 days 3 hrs ago0x44f8004e4ce6c3087ce8e879ff290093d5593c75OUT USD Coin0 MATIC0.029223500
0xf6ebec5407ff4e5d312597eed62538654a59fbc23501f99271b1b83f65bc1970Transfer From Wi...233961792022-01-06 8:02:5217 days 12 hrs ago0x44f8004e4ce6c3087ce8e879ff290093d5593c75OUT 0x0dfbee143b42b41efc5a6f87bfd1ffc78c2f0ac90 MATIC0.003868286439.6
0x702d07b38c5004602d4c002671cbff04f1b19030f6d38c1c71b9a47690331db0Approve233961722022-01-06 8:02:3817 days 12 hrs ago0x44f8004e4ce6c3087ce8e879ff290093d5593c75OUT USD Coin0 MATIC0.00210405636
0xd2aa7bab0e9ed6b6db05e80cdfad42d7e8a2a8a89e60f9263ad91d6f13dc1ce1Withdraw214536752021-11-16 22:29:4267 days 22 hrs ago0x44f8004e4ce6c3087ce8e879ff290093d5593c75OUT USD Coin0 MATIC0.00198316682347.746883917
0xeac659da930277dd2e3d52beeeff7bb5cc209977366d5c6f0900b8bec76c8da6Swap Exact Token...214536252021-11-16 22:25:0267 days 22 hrs ago0x44f8004e4ce6c3087ce8e879ff290093d5593c75OUT 0xfe0e493564db7ae23a7b6ea07f2c633ee8f25f220 MATIC0.005712930
0x354a043c66713a2b97ada3cfbe86fadf29a25898a5dbfb24d808c442d665b5e5Transfer214535092021-11-16 22:21:0667 days 22 hrs ago0xf21a3943de75ce825b4a56228c471c3acfdaebd9 IN 0x44f8004e4ce6c3087ce8e879ff290093d5593c752.59 MATIC0.0006330
0x451907f187500bae951ed082a4771ba6a4b7d9eda17dfc227fbad3249175b9e8Transfer214525732021-11-16 21:46:4667 days 22 hrs ago0x44f8004e4ce6c3087ce8e879ff290093d5593c75OUT0xf21a3943de75ce825b4a56228c471c3acfdaebd93,402.592736349519626 MATIC0.0006330
0x327cb36b3d83f4f2e479f225ca4ac294a9f1892f6a1ece7e5ca3992332479965Transfer214525142021-11-16 21:44:4467 days 22 hrs ago0x44f8004e4ce6c3087ce8e879ff290093d5593c75OUT0xf21a3943de75ce825b4a56228c471c3acfdaebd9300 MATIC0.0006330
0xdc2341455f520d37196369ea261981ed959d353af3e2b349ad7954d65bf064dfSwap Exact Token...214524752021-11-16 21:43:2267 days 22 hrs ago0x44f8004e4ce6c3087ce8e879ff290093d5593c75OUT 0xfe0e493564db7ae23a7b6ea07f2c633ee8f25f220 MATIC0.0057132630
0xd0e07ee2c5dc71e1d5c9af36ba0ba70551d5e8b237a33a355aed518d6b04013bApprove214523242021-11-16 21:38:0467 days 22 hrs ago0x44f8004e4ce6c3087ce8e879ff290093d5593c75OUT USD Coin0 MATIC0.0017533830
0x8eac97e6d435629e0996b36534601044af7a6ed69d46b1764e10fa8a8c6d6024Swap Exact Token...208651492021-11-01 17:09:2783 days 3 hrs ago0x44f8004e4ce6c3087ce8e879ff290093d5593c75OUT 0xfe0e493564db7ae23a7b6ea07f2c633ee8f25f220 MATIC0.0035917530
0xb3153c195d5f86a5f8223bea7aaedd41d381e206496263658955bf97341749abApprove208651272021-11-01 17:08:4383 days 3 hrs ago0x44f8004e4ce6c3087ce8e879ff290093d5593c75OUT 0x348e62131fce2f4e0d5ead3fe1719bc039b380a90 MATIC0.0008012730
0x9f625b6ad55512c5f10278f3a512c66c5e66ec135b6badb86b97c0204200fb7cApprove208650852021-11-01 17:07:1583 days 3 hrs ago0x44f8004e4ce6c3087ce8e879ff290093d5593c75OUT 0x348e62131fce2f4e0d5ead3fe1719bc039b380a90 MATIC0.0013982730
0x59968bf2936df2b42d9e348798d9ddc72e7f7842e0b3af40270f8f385073ca53Transfer157757162021-06-16 8:26:05221 days 12 hrs ago0x44f8004e4ce6c3087ce8e879ff290093d5593c75OUT 0x348e62131fce2f4e0d5ead3fe1719bc039b380a90 MATIC0.000019721
0xaf0fe134877183efa12a917ec14a174621955c7edbf18c2a3ac676fa6e9ee852Transfer157740982021-06-16 7:26:00221 days 13 hrs ago0x44f8004e4ce6c3087ce8e879ff290093d5593c75OUT 0x348e62131fce2f4e0d5ead3fe1719bc039b380a90 MATIC0.00005697561.1
0xfb25b312524b45b6f25a250bf8394956b1a0fd04bc1adda309c7f8686826580dTransfer141738292021-05-06 20:01:20262 days 32 mins ago0x7cea675598da73f859696b483c05a4f135b2092e IN 0x44f8004e4ce6c3087ce8e879ff290093d5593c750.001 MATIC0.0000211
[ Download CSV Export 
Latest 7 internal transactions
Parent Txn Hash Block From To Value
0x6ff9351c5d44679228299d196cc15474609beee39e3e320ffbef0f5993833e48236299942022-01-12 10:54:3111 days 9 hrs ago 0xfe0e493564db7ae23a7b6ea07f2c633ee8f25f220x44f8004e4ce6c3087ce8e879ff290093d5593c751,391.071879047724713028 MATIC
0x386bc40fdc6848b67b2b2720bfde7f3744c83fa7851497021afd539d3d72d572234128122022-01-06 19:05:4517 days 1 hr ago QuickSwap: Router0x44f8004e4ce6c3087ce8e879ff290093d5593c75593.536188414132877305 MATIC
0x165ab3c7b849f8a569dbfe67d32da37972c2638094257541077605fcd57deae7234124072022-01-06 18:51:4717 days 1 hr ago QuickSwap: Router0x44f8004e4ce6c3087ce8e879ff290093d5593c7535.345848765148798493 MATIC
0xeac659da930277dd2e3d52beeeff7bb5cc209977366d5c6f0900b8bec76c8da6214536252021-11-16 22:25:0267 days 22 hrs ago 0xfe0e493564db7ae23a7b6ea07f2c633ee8f25f220x44f8004e4ce6c3087ce8e879ff290093d5593c7563.172962977183514163 MATIC
0xdc2341455f520d37196369ea261981ed959d353af3e2b349ad7954d65bf064df214524752021-11-16 21:43:2267 days 22 hrs ago 0xfe0e493564db7ae23a7b6ea07f2c633ee8f25f220x44f8004e4ce6c3087ce8e879ff290093d5593c753,702.566330975119626912 MATIC
0xf7baec76e868b08ff1b779decb9007e73c2aaf1bf81b2ffaca7b8d087645f625208651672021-11-01 17:10:0783 days 3 hrs ago Polygon: Airdrop0x44f8004e4ce6c3087ce8e879ff290093d5593c750.02 MATIC
0x48a8550a094490a044007b3d0c6ed7e56a7289a5bef1417ff6d3be018af8059d208645982021-11-01 16:50:3383 days 3 hrs ago Polygon: Airdrop0x44f8004e4ce6c3087ce8e879ff290093d5593c750.02 MATIC
[ Download CSV Export 
Loading

Contract Name:
0 MATIC

Compiler Version
0

Optimization Enabled:
0 MATIC

Other Settings:
-NA-
Block Transaction Gas Used Reward
Age Block Fee Address BC Fee Address Voting Power Jailed Incoming
Block Uncle Number Difficulty Gas Used Reward
Loading
Loading
Make sure to use the "Vote Down" button for any spammy posts, and the "Vote Up" for interesting conversations.